Time;durP1;ratioP1;P1;durP2;ratioP2;P2;SDS_P1;SDS_P2;PMS_P1;PMS_P2;Temp;Humidity;BMP_temperature;BMP_pressure;BME280_temperature;BME280_humidity;BME280_pressure;Samples;Min_cycle;Max_cycle;Signal;HPM_P1;HPM_P2
2021/04/24 00:01:32;;;;;;;6.93;3.80;;;;;;;6.36;51.62;93365.69;2038569;70;20152;-76
2021/04/24 00:03:59;;;;;;;7.88;3.90;;;;;;;6.53;51.33;93375.47;2038687;70;20607;-77
2021/04/24 00:06:28;;;;;;;5.05;3.85;;;;;;;6.49;50.48;93369.53;2038064;70;20611;-76
2021/04/24 00:08:54;;;;;;;6.07;3.45;;;;;;;6.54;51.25;93363.72;2038470;70;20247;-79
2021/04/24 00:11:24;;;;;;;6.63;3.55;;;;;;;6.51;52.35;93378.13;2038157;70;20279;-78
2021/04/24 00:13:58;;;;;;;6.45;3.90;;;;;;;6.56;50.94;93377.88;2038138;70;20155;-78
2021/04/24 00:16:35;;;;;;;6.55;4.10;;;;;;;6.58;50.68;93380.84;2038396;70;20246;-78
2021/04/24 00:19:10;;;;;;;6.90;4.05;;;;;;;6.39;50.50;93375.00;2037784;70;20163;-76
2021/04/24 00:21:36;;;;;;;9.32;3.80;;;;;;;6.47;51.24;93372.91;2037706;70;20175;-80
2021/04/24 00:24:02;;;;;;;4.95;3.33;;;;;;;6.40;50.15;93375.75;2038239;70;20179;-77
2021/04/24 00:26:28;;;;;;;8.93;4.55;;;;;;;6.02;51.67;93380.19;2038411;70;20234;-77
2021/04/24 00:28:54;;;;;;;5.75;4.10;;;;;;;5.91;52.38;93379.84;2038389;70;20152;-79
2021/04/24 00:31:20;;;;;;;7.85;4.45;;;;;;;6.29;51.86;93376.91;2038393;70;20651;-79
2021/04/24 00:33:46;;;;;;;8.02;4.30;;;;;;;6.28;51.75;93364.25;2038488;70;20156;-80
2021/04/24 00:36:13;;;;;;;8.02;4.63;;;;;;;6.10;52.90;93369.00;2037799;70;20149;-77
2021/04/24 00:38:39;;;;;;;7.25;4.32;;;;;;;6.29;51.57;93362.94;2038247;70;20615;-79
2021/04/24 00:41:05;;;;;;;8.63;4.03;;;;;;;5.61;54.07;93359.06;2038363;70;20242;-78
2021/04/24 00:43:30;;;;;;;5.32;3.83;;;;;;;6.01;52.58;93361.22;2037731;70;20641;-78
2021/04/24 00:45:56;;;;;;;6.97;4.28;;;;;;;6.06;52.47;93357.47;2038334;70;20633;-78
2021/04/24 00:48:22;;;;;;;6.03;4.28;;;;;;;6.02;52.03;93355.03;2038345;70;20144;-78
2021/04/24 00:50:51;;;;;;;7.60;4.45;;;;;;;6.00;52.65;93356.91;2038363;70;20207;-77
2021/04/24 00:53:18;;;;;;;8.18;4.35;;;;;;;5.95;51.56;93355.06;2035213;70;20232;-78
2021/04/24 00:55:45;;;;;;;5.78;3.95;;;;;;;5.81;52.36;93354.53;2038313;70;20267;-77
2021/04/24 00:58:12;;;;;;;6.65;4.00;;;;;;;5.96;52.68;93351.00;2037873;70;20699;-80
2021/04/24 01:00:40;;;;;;;7.47;4.20;;;;;;;5.79;52.83;93349.53;2038348;70;20146;-78
2021/04/24 01:03:06;;;;;;;10.30;4.03;;;;;;;5.77;51.92;93351.38;2038511;70;20179;-79
2021/04/24 01:05:38;;;;;;;6.72;4.18;;;;;;;5.68;52.08;93349.19;2038305;70;20599;-78
2021/04/24 01:08:08;;;;;;;6.00;3.90;;;;;;;5.92;51.96;93351.38;2038261;70;20228;-79
2021/04/24 01:10:35;;;;;;;8.27;4.22;;;;;;;5.51;53.54;93358.91;2038437;70;20231;-78
2021/04/24 01:13:01;;;;;;;7.63;3.90;;;;;;;5.65;53.16;93355.91;2037741;70;20135;-78
2021/04/24 01:15:28;;;;;;;6.80;3.80;;;;;;;5.54;53.76;93348.66;2038282;70;20174;-79
2021/04/24 01:17:53;;;;;;;5.95;3.80;;;;;;;5.56;53.67;93348.84;2038283;70;20143;-80
2021/04/24 01:20:20;;;;;;;6.38;3.65;;;;;;;5.60;52.03;93357.59;2038480;70;20187;-79
2021/04/24 01:22:47;;;;;;;5.90;3.78;;;;;;;5.60;52.90;93349.97;2038426;70;20153;-79
2021/04/24 01:25:16;;;;;;;7.63;3.85;;;;;;;5.45;53.25;93349.22;2038411;70;20239;-79
2021/04/24 01:27:42;;;;;;;6.75;3.50;;;;;;;5.53;52.38;93347.19;2037679;70;20155;-79
2021/04/24 01:30:10;;;;;;;5.30;3.50;;;;;;;5.47;52.77;93349.44;2037767;70;20601;-80
2021/04/24 01:32:37;;;;;;;5.43;3.17;;;;;;;5.45;53.01;93347.22;2038329;70;20140;-79
2021/04/24 01:35:09;;;;;;;6.05;3.75;;;;;;;5.43;53.97;93343.47;2038360;70;20218;-80
2021/04/24 01:37:35;;;;;;;5.63;3.67;;;;;;;5.46;53.71;93342.38;2038233;70;20244;-81
2021/04/24 01:40:00;;;;;;;7.45;3.90;;;;;;;5.49;53.50;93339.16;2038406;70;20175;-80
2021/04/24 01:42:26;;;;;;;8.60;4.13;;;;;;;5.29;53.11;93343.69;2038273;70;20263;-79
2021/04/24 01:44:53;;;;;;;7.78;3.90;;;;;;;5.25;53.49;93337.00;2038284;70;20143;-79
2021/04/24 01:47:19;;;;;;;8.13;3.90;;;;;;;5.26;54.08;93330.09;2038279;70;20171;-79
2021/04/24 01:49:45;;;;;;;10.38;4.05;;;;;;;5.02;55.52;93331.44;2038302;70;20202;-79
2021/04/24 01:52:10;;;;;;;6.72;3.72;;;;;;;5.04;54.45;93331.63;2037862;70;20154;-78
2021/04/24 01:54:36;;;;;;;7.20;3.78;;;;;;;5.18;54.56;93326.56;2038151;70;20448;-80
2021/04/24 01:57:02;;;;;;;9.07;4.18;;;;;;;5.05;53.85;93328.28;2038363;70;20136;-80
2021/04/24 01:59:30;;;;;;;7.57;3.90;;;;;;;5.01;54.64;93325.13;2038351;70;20518;-80
2021/04/24 02:01:58;;;;;;;5.72;3.78;;;;;;;5.11;53.26;93328.09;2038258;70;20539;-80
2021/04/24 02:04:26;;;;;;;6.50;3.78;;;;;;;5.21;53.55;93317.09;2038200;70;20144;-78
2021/04/24 02:06:52;;;;;;;6.60;3.60;;;;;;;4.97;54.47;93327.53;2038243;70;20147;-80
2021/04/24 02:09:19;;;;;;;5.80;3.65;;;;;;;4.72;53.86;93327.38;2038121;70;20615;-80
2021/04/24 02:12:00;;;;;;;6.10;3.70;;;;;;;4.78;54.84;93327.94;2038247;70;20155;-80
2021/04/24 02:14:26;;;;;;;7.25;4.05;;;;;;;4.85;54.32;93320.84;2038213;70;20135;-81
2021/04/24 02:16:52;;;;;;;6.47;3.97;;;;;;;4.81;54.26;93326.81;2038382;70;20610;-79
2021/04/24 02:19:18;;;;;;;6.15;3.85;;;;;;;4.73;55.71;93326.06;2038320;70;20159;-79
2021/04/24 02:21:45;;;;;;;7.72;4.20;;;;;;;4.81;56.09;93332.41;2038309;70;20144;-80
2021/04/24 02:24:10;;;;;;;8.25;4.43;;;;;;;4.79;55.40;93321.03;2038148;70;20278;-79
2021/04/24 02:26:36;;;;;;;8.98;4.40;;;;;;;4.81;55.39;93326.06;2038209;70;20238;-80
2021/04/24 02:29:02;;;;;;;7.20;4.70;;;;;;;4.75;55.39;93323.47;2038188;70;20167;-79
2021/04/24 02:31:28;;;;;;;7.72;4.35;;;;;;;4.74;54.50;93330.34;2038195;70;20154;-80
2021/04/24 02:33:55;;;;;;;6.82;4.07;;;;;;;4.76;55.32;93324.19;2034922;70;20136;-79
2021/04/24 02:36:20;;;;;;;7.50;3.70;;;;;;;4.66;55.16;93326.81;2038176;70;20128;-79
2021/04/24 02:38:52;;;;;;;7.13;3.63;;;;;;;4.52;54.90;93329.03;2037533;70;20234;-80
2021/04/24 02:41:18;;;;;;;8.82;3.85;;;;;;;4.48;53.67;93320.28;2038069;70;20175;-80
2021/04/24 02:43:44;;;;;;;6.45;3.67;;;;;;;4.56;55.48;93321.03;2038734;70;20156;-79
2021/04/24 02:46:10;;;;;;;6.97;3.85;;;;;;;4.53;55.22;93319.34;2038735;70;20143;-80
2021/04/24 02:48:36;;;;;;;5.63;3.30;;;;;;;4.50;54.32;93323.28;2038605;70;20143;-79
2021/04/24 02:51:02;;;;;;;9.68;4.28;;;;;;;4.55;55.61;93321.59;2038612;70;20235;-79
2021/04/24 02:53:28;;;;;;;6.03;3.95;;;;;;;4.53;53.91;93324.19;2038505;70;20168;-78
2021/04/24 02:55:53;;;;;;;8.40;4.07;;;;;;;4.49;55.41;93323.81;2038721;70;20207;-79
2021/04/24 02:58:19;;;;;;;7.28;3.75;;;;;;;4.39;55.08;93322.88;2038576;70;20140;-78
2021/04/24 03:00:45;;;;;;;9.10;3.78;;;;;;;4.29;54.85;93320.63;2038571;70;20156;-79
2021/04/24 03:03:13;;;;;;;7.03;3.70;;;;;;;4.33;54.92;93326.59;2038526;70;20227;-78
2021/04/24 03:05:42;;;;;;;9.18;3.67;;;;;;;4.30;55.26;93330.47;2038016;70;20168;-80
2021/04/24 03:08:10;;;;;;;6.57;4.10;;;;;;;4.29;54.85;93320.63;2038361;70;20671;-78
2021/04/24 03:10:38;;;;;;;7.45;4.30;;;;;;;4.33;55.63;93318.22;2038066;70;20531;-78
2021/04/24 03:13:05;;;;;;;7.32;4.03;;;;;;;4.40;55.28;93319.56;2038663;70;20159;-80
2021/04/24 03:15:31;;;;;;;6.85;4.10;;;;;;;4.24;55.30;93318.03;2038578;70;20667;-78
2021/04/24 03:17:57;;;;;;;6.95;4.45;;;;;;;4.33;55.88;93315.44;2038667;70;20206;-80
2021/04/24 03:20:23;;;;;;;6.50;4.30;;;;;;;4.33;55.23;93323.06;2038574;70;20230;-79
2021/04/24 03:22:50;;;;;;;5.38;3.95;;;;;;;4.18;56.19;93315.44;2038434;70;20155;-79
2021/04/24 03:25:16;;;;;;;9.73;4.47;;;;;;;4.07;55.32;93321.34;2038051;70;20146;-79
2021/04/24 03:27:42;;;;;;;7.60;4.10;;;;;;;4.28;54.63;93315.63;2038564;70;20194;-80
2021/04/24 03:30:10;;;;;;;8.55;3.53;;;;;;;4.29;54.54;93317.09;2038674;70;20215;-77
2021/04/24 03:32:38;;;;;;;8.82;3.75;;;;;;;4.06;54.32;93315.03;2038009;70;20144;-80
2021/04/24 03:35:05;;;;;;;7.57;3.55;;;;;;;4.32;54.29;93325.13;2037897;70;20575;-80
2021/04/24 03:37:31;;;;;;;5.65;3.83;;;;;;;3.70;56.77;93323.44;2038511;70;20203;-79
2021/04/24 03:39:57;;;;;;;5.88;3.75;;;;;;;4.02;56.20;93316.69;2038524;70;20159;-79
2021/04/24 03:42:23;;;;;;;6.75;3.47;;;;;;;3.77;56.26;93319.22;2037912;70;20235;-78
2021/04/24 03:44:49;;;;;;;6.07;4.03;;;;;;;3.74;56.21;93317.53;2038533;70;20163;-79
2021/04/24 03:47:14;;;;;;;6.47;3.47;;;;;;;4.00;55.89;93320.03;2038533;70;20504;-80
2021/04/24 03:49:40;;;;;;;8.20;4.30;;;;;;;3.79;57.57;93316.63;2038163;70;20598;-79
2021/04/24 03:52:06;;;;;;;7.90;3.85;;;;;;;3.85;56.14;93320.00;2038642;70;20150;-79
2021/04/24 03:54:32;;;;;;;5.05;3.60;;;;;;;3.77;56.74;93322.75;2038584;70;20187;-80
2021/04/24 03:56:59;;;;;;;7.40;4.22;;;;;;;3.49;56.87;93312.44;2038551;70;20246;-78
2021/04/24 03:59:24;;;;;;;5.50;4.13;;;;;;;3.76;55.65;93323.31;2038539;70;20327;-79
2021/04/24 04:01:51;;;;;;;8.20;3.92;;;;;;;3.76;55.30;93318.47;2037990;70;20234;-80
2021/04/24 04:04:16;;;;;;;5.13;4.18;;;;;;;3.84;55.33;93324.06;2037937;70;20143;-79
2021/04/24 04:06:42;;;;;;;10.80;4.28;;;;;;;3.85;55.49;93314.44;2038562;70;20237;-79
2021/04/24 04:09:08;;;;;;;5.15;3.80;;;;;;;3.90;55.32;93321.88;2038392;70;20535;-78
2021/04/24 04:11:33;;;;;;;4.45;3.53;;;;;;;3.85;55.60;93314.44;2038615;70;20227;-80
2021/04/24 04:13:59;;;;;;;7.43;4.15;;;;;;;3.47;55.91;93323.34;2038514;70;20144;-79
2021/04/24 04:16:25;;;;;;;6.05;4.18;;;;;;;3.73;55.37;93311.22;2038531;70;20144;-78
2021/04/24 04:18:52;;;;;;;6.88;4.25;;;;;;;3.87;55.72;93314.59;2038525;70;20239;-80
2021/04/24 04:21:18;;;;;;;10.95;4.65;;;;;;;3.85;55.36;93322.78;2038509;70;20179;-78
2021/04/24 04:23:43;;;;;;;7.93;4.53;;;;;;;3.93;55.99;93317.97;2038346;70;20155;-79
2021/04/24 04:26:10;;;;;;;5.32;3.47;;;;;;;3.75;55.43;93322.53;2038477;70;20235;-81
2021/04/24 04:28:35;;;;;;;6.03;4.43;;;;;;;3.54;56.91;93331.00;2038639;70;20597;-81
2021/04/24 04:31:01;;;;;;;10.80;4.35;;;;;;;3.66;55.10;93330.66;2038471;70;20154;-79
2021/04/24 04:33:26;;;;;;;8.70;3.78;;;;;;;3.67;55.46;93326.63;2038536;70;20282;-80
2021/04/24 04:35:52;;;;;;;8.45;3.05;;;;;;;3.73;55.14;93327.19;2038487;70;20155;-80
2021/04/24 04:38:18;;;;;;;4.65;2.65;;;;;;;4.09;52.34;93332.69;2038348;70;20132;-78
2021/04/24 04:40:45;;;;;;;7.15;2.83;;;;;;;4.23;51.57;93328.44;2038468;70;20630;-81
2021/04/24 04:43:12;;;;;;;9.82;4.32;;;;;;;3.87;53.65;93330.56;2038404;70;20188;-81
2021/04/24 04:45:38;;;;;;;6.70;3.90;;;;;;;3.97;53.78;93326.69;2038476;70;20258;-79
2021/04/24 04:48:04;;;;;;;5.22;3.55;;;;;;;4.05;53.17;93330.25;2038457;70;20594;-80
2021/04/24 04:50:33;;;;;;;7.68;3.55;;;;;;;4.08;53.60;93322.84;2038421;70;20159;-81
2021/04/24 04:52:59;;;;;;;5.90;3.65;;;;;;;4.27;52.07;93328.09;2038441;70;20156;-80
2021/04/24 04:55:25;;;;;;;8.02;4.10;;;;;;;4.18;52.77;93334.19;2038433;70;20284;-80
2021/04/24 04:57:51;;;;;;;10.32;4.43;;;;;;;4.13;52.43;93324.72;2038434;70;20144;-80
2021/04/24 05:00:18;;;;;;;9.43;3.65;;;;;;;4.06;53.51;93328.22;2038449;70;20132;-79
2021/04/24 05:02:44;;;;;;;6.68;3.70;;;;;;;4.06;53.38;93328.94;2038273;70;20151;-80
2021/04/24 05:05:11;;;;;;;7.38;3.60;;;;;;;4.09;52.96;93329.91;2038425;70;20174;-79
2021/04/24 05:07:37;;;;;;;5.65;3.47;;;;;;;4.32;52.06;93325.13;2038163;70;20151;-80
2021/04/24 05:10:05;;;;;;;8.90;4.22;;;;;;;4.16;53.16;93334.72;2038419;70;20144;-79
2021/04/24 05:12:30;;;;;;;7.50;3.90;;;;;;;4.04;52.42;93331.56;2038366;70;20626;-80
2021/04/24 05:14:57;;;;;;;7.97;4.20;;;;;;;4.16;52.77;93331.19;2038388;70;20143;-79
2021/04/24 05:17:22;;;;;;;5.57;3.80;;;;;;;4.18;52.45;93334.94;2038379;70;20139;-80
2021/04/24 05:19:48;;;;;;;4.82;3.50;;;;;;;4.07;52.42;93333.22;2038408;70;20169;-79
2021/04/24 05:22:14;;;;;;;7.78;3.55;;;;;;;4.09;52.29;93335.47;2037857;70;20148;-80
2021/04/24 05:24:40;;;;;;;5.70;3.08;;;;;;;4.36;49.76;93333.13;2038260;70;20142;-80
2021/04/24 05:27:06;;;;;;;6.43;3.08;;;;;;;4.41;49.10;93332.19;2038370;70;20239;-80
2021/04/24 05:29:32;;;;;;;7.88;3.08;;;;;;;4.51;48.07;93333.13;2038378;70;20186;-80
2021/04/24 05:31:57;;;;;;;6.10;3.15;;;;;;;4.48;49.22;93333.50;2038404;70;20168;-79
2021/04/24 05:34:23;;;;;;;4.93;3.05;;;;;;;4.49;49.18;93327.38;2038363;70;20143;-80
2021/04/24 05:36:49;;;;;;;3.17;2.50;;;;;;;4.46;49.69;93334.06;2038351;70;20143;-80
2021/04/24 05:39:14;;;;;;;6.57;3.22;;;;;;;4.52;49.51;93319.91;2038326;70;20148;-81
2021/04/24 05:41:40;;;;;;;6.15;2.95;;;;;;;4.55;50.12;93343.91;2038340;70;20167;-80
2021/04/24 05:44:06;;;;;;;9.57;2.55;;;;;;;4.58;48.73;93340.75;2038284;70;20188;-79
2021/04/24 05:46:31;;;;;;;3.47;2.53;;;;;;;4.64;48.20;93340.56;2038324;70;20159;-78
2021/04/24 05:48:57;;;;;;;6.97;2.60;;;;;;;4.92;47.10;93338.91;2038305;70;20164;-80
2021/04/24 05:51:23;;;;;;;4.88;2.40;;;;;;;4.89;48.02;93340.00;2038287;70;20626;-79
2021/04/24 05:53:51;;;;;;;6.55;3.33;;;;;;;4.76;48.46;93338.16;2038492;70;20139;-79
2021/04/24 05:56:18;;;;;;;4.68;3.10;;;;;;;4.83;47.99;93346.53;2038387;70;20504;-79
2021/04/24 05:58:44;;;;;;;8.02;4.25;;;;;;;4.42;49.88;93339.25;2038309;70;20223;-80
2021/04/24 06:01:10;;;;;;;10.48;4.10;;;;;;;4.65;49.32;93332.94;2038320;70;20148;-80
2021/04/24 06:03:36;;;;;;;8.88;3.85;;;;;;;4.58;49.84;93334.41;2038375;70;20187;-80
2021/04/24 06:06:02;;;;;;;5.35;3.35;;;;;;;4.62;49.94;93332.00;2038319;70;20148;-79
2021/04/24 06:08:27;;;;;;;8.40;3.80;;;;;;;4.43;50.83;93329.56;2038107;70;20163;-81
2021/04/24 06:10:53;;;;;;;7.28;4.30;;;;;;;4.47;49.81;93332.75;2038291;70;20629;-81
2021/04/24 06:13:19;;;;;;;7.63;4.13;;;;;;;4.76;48.58;93329.78;2038312;70;20619;-81
2021/04/24 06:15:45;;;;;;;8.82;4.22;;;;;;;4.77;48.48;93325.72;2038262;70;20227;-80
2021/04/24 06:18:10;;;;;;;6.45;3.80;;;;;;;4.89;47.81;93337.22;2038357;70;20662;-79
2021/04/24 06:20:37;;;;;;;4.60;3.00;;;;;;;4.86;46.16;93333.53;2038245;70;20143;-80
2021/04/24 06:23:03;;;;;;;6.32;2.70;;;;;;;4.81;45.47;93326.06;2037552;70;20139;-82
2021/04/24 06:25:29;;;;;;;5.50;2.70;;;;;;;5.07;46.90;93325.66;2038265;70;20136;-81
2021/04/24 06:27:55;;;;;;;3.95;2.50;;;;;;;5.32;45.13;93316.72;2038224;70;20227;-80
2021/04/24 06:30:21;;;;;;;6.47;2.60;;;;;;;5.44;45.64;93326.16;2038204;70;20154;-80
2021/04/24 06:32:49;;;;;;;5.10;2.60;;;;;;;5.91;46.86;93318.34;2038193;70;20607;-80
2021/04/24 06:35:16;;;;;;;3.65;2.13;;;;;;;6.20;45.09;93310.41;2038186;70;20167;-81
2021/04/24 06:37:42;;;;;;;5.10;2.20;;;;;;;6.22;43.48;93311.31;2038075;70;20155;-79
2021/04/24 06:40:11;;;;;;;7.03;2.95;;;;;;;6.79;43.58;93304.25;2038180;70;20202;-79
2021/04/24 06:42:37;;;;;;;6.45;2.50;;;;;;;6.74;43.04;93305.22;2038113;70;20752;-80
2021/04/24 06:45:05;;;;;;;6.60;2.63;;;;;;;7.12;40.43;93304.88;2038194;70;20124;-79
2021/04/24 06:47:31;;;;;;;3.55;2.63;;;;;;;7.46;40.00;93295.75;2038169;70;20154;-80
2021/04/24 06:49:57;;;;;;;3.95;2.80;;;;;;;7.83;39.59;93296.66;2038150;70;20147;-81
2021/04/24 06:52:23;;;;;;;3.70;2.50;;;;;;;8.34;41.55;93303.47;2038266;70;20527;-80
2021/04/24 06:54:49;;;;;;;3.45;2.45;;;;;;;8.68;41.57;93303.97;2037500;70;20595;-81
2021/04/24 06:57:15;;;;;;;3.47;2.20;;;;;;;9.30;39.38;93298.81;2038160;70;20259;-81
2021/04/24 06:59:43;;;;;;;5.05;2.60;;;;;;;8.63;36.73;93295.22;2038149;70;20223;-81
2021/04/24 07:02:11;;;;;;;3.88;2.75;;;;;;;9.32;35.67;93296.91;2038125;70;20252;-81
2021/04/24 07:04:37;;;;;;;4.03;2.50;;;;;;;9.92;34.41;93297.09;2038063;70;20152;-81
2021/04/24 07:07:03;;;;;;;5.10;2.50;;;;;;;10.24;33.68;93292.34;2038023;70;20595;-81
2021/04/24 07:09:28;;;;;;;4.13;2.60;;;;;;;10.73;33.11;93283.78;2037984;70;20162;-80
2021/04/24 07:11:54;;;;;;;6.07;2.70;;;;;;;10.96;32.84;93286.81;2038096;70;20231;-82
2021/04/24 07:14:20;;;;;;;8.95;2.60;;;;;;;10.78;34.51;93282.72;2038102;70;20148;-80
2021/04/24 07:16:45;;;;;;;6.80;2.50;;;;;;;11.52;36.37;93285.59;2038110;70;20594;-80
2021/04/24 07:19:12;;;;;;;4.18;2.22;;;;;;;11.80;34.85;93281.09;2038222;70;20158;-80
2021/04/24 07:21:38;;;;;;;4.63;2.25;;;;;;;12.65;34.95;93272.44;2038072;70;20163;-81
2021/04/24 07:24:04;;;;;;;3.85;2.63;;;;;;;12.71;32.43;93272.09;2037909;70;20587;-82
2021/04/24 07:26:30;;;;;;;4.88;3.10;;;;;;;12.19;31.89;93275.91;2038440;70;20140;-82
2021/04/24 07:28:55;;;;;;;8.85;3.00;;;;;;;12.62;33.15;93262.34;2038703;70;20623;-82
2021/04/24 07:31:21;;;;;;;7.20;2.90;;;;;;;12.93;31.51;93269.91;2038608;70;20236;-80
2021/04/24 07:33:47;;;;;;;8.60;3.10;;;;;;;12.46;31.06;93269.81;2038709;70;20144;-80
2021/04/24 07:36:13;;;;;;;5.47;3.05;;;;;;;12.92;31.60;93266.34;2038693;70;20239;-81
2021/04/24 07:38:39;;;;;;;6.53;3.00;;;;;;;13.66;30.03;93268.63;2038478;70;20155;-79
2021/04/24 07:41:04;;;;;;;5.82;3.10;;;;;;;14.35;29.65;93262.59;2038539;70;20254;-82
2021/04/24 07:43:30;;;;;;;8.45;2.72;;;;;;;15.12;28.20;93251.88;2038527;70;20682;-79
2021/04/24 07:45:56;;;;;;;5.57;2.60;;;;;;;15.11;27.85;93258.91;2038554;70;20670;-81
2021/04/24 07:48:21;;;;;;;3.75;2.40;;;;;;;15.46;26.74;93262.19;2038565;70;20259;-81
2021/04/24 07:50:49;;;;;;;5.43;2.30;;;;;;;14.15;26.25;93248.03;2038627;70;20171;-82
2021/04/24 07:53:16;;;;;;;5.45;2.28;;;;;;;15.75;26.47;93240.97;2038448;70;20304;-82
2021/04/24 07:55:42;;;;;;;5.20;2.28;;;;;;;16.16;25.65;93251.50;2038556;70;20155;-81
2021/04/24 07:58:09;;;;;;;5.60;2.80;;;;;;;16.45;23.25;93245.84;2038518;70;20182;-82
2021/04/24 08:00:36;;;;;;;3.58;1.90;;;;;;;17.56;22.55;93242.31;2038562;70;20151;-82
2021/04/24 08:03:01;;;;;;;5.95;2.05;;;;;;;17.37;22.29;93246.47;2038523;70;20220;-82
2021/04/24 08:05:27;;;;;;;5.03;1.83;;;;;;;16.84;21.81;93244.09;2038516;70;20171;-82
2021/04/24 08:07:53;;;;;;;1.75;1.60;;;;;;;17.39;22.88;93238.75;2038342;70;20167;-82
2021/04/24 08:10:18;;;;;;;3.05;1.63;;;;;;;17.99;22.79;93242.78;2038529;70;20152;-79
2021/04/24 08:12:46;;;;;;;2.60;1.80;;;;;;;17.92;21.13;93249.59;2038549;70;20164;-81
2021/04/24 08:15:13;;;;;;;3.42;1.77;;;;;;;18.94;20.46;93235.88;2038649;70;20156;-83
2021/04/24 08:17:39;;;;;;;9.25;2.05;;;;;;;19.37;20.42;93234.63;2038530;70;20235;-83
2021/04/24 08:20:09;;;;;;;2.88;1.60;;;;;;;19.68;19.69;93225.06;2038529;70;20136;-82
2021/04/24 08:22:35;;;;;;;2.10;1.63;;;;;;;18.07;20.39;93227.41;2038359;70;20539;-82
2021/04/24 08:25:03;;;;;;;2.30;1.67;;;;;;;19.53;21.18;93229.50;2038541;70;20147;-82
2021/04/24 08:27:29;;;;;;;2.95;1.67;;;;;;;19.82;20.72;93225.53;2038453;70;20195;-83
2021/04/24 08:29:54;;;;;;;2.97;1.80;;;;;;;19.38;20.18;93219.69;2038464;70;20598;-83
2021/04/24 08:32:20;;;;;;;3.50;1.50;;;;;;;17.11;21.44;93212.63;2038462;70;20667;-82
2021/04/24 08:34:45;;;;;;;2.90;1.55;;;;;;;17.52;20.44;93208.72;2038514;70;20147;-80
2021/04/24 08:37:11;;;;;;;5.35;1.73;;;;;;;20.69;19.73;93212.69;2038428;70;20599;-83
2021/04/24 08:39:37;;;;;;;5.28;1.60;;;;;;;19.99;19.97;93206.84;2038406;70;20208;-82
2021/04/24 08:42:04;;;;;;;2.70;1.70;;;;;;;20.24;19.07;93203.38;2038618;70;20223;-82
2021/04/24 08:44:30;;;;;;;3.95;1.70;;;;;;;20.68;18.69;93199.81;2038421;70;20549;-83
2021/04/24 08:46:57;;;;;;;5.60;1.80;;;;;;;20.78;19.79;93195.13;2038462;70;20147;-82
2021/04/24 08:49:24;;;;;;;4.25;1.80;;;;;;;22.39;17.91;93198.16;2037966;70;20247;-80
2021/04/24 08:51:51;;;;;;;3.40;1.55;;;;;;;22.23;17.76;93184.16;2038487;70;20142;-83
2021/04/24 08:54:18;;;;;;;3.35;1.70;;;;;;;23.58;15.98;93200.13;2038384;70;20171;-81
2021/04/24 08:56:45;;;;;;;2.80;1.80;;;;;;;22.52;16.78;93183.44;2038467;70;20139;-80
2021/04/24 08:59:11;;;;;;;2.72;1.75;;;;;;;21.50;17.74;93180.78;2038444;70;20132;-80
2021/04/24 09:01:37;;;;;;;3.90;1.60;;;;;;;22.68;17.91;93180.22;2038468;70;20147;-80
2021/04/24 09:04:03;;;;;;;2.30;1.30;;;;;;;21.40;17.79;93169.06;2038418;70;20242;-82
2021/04/24 09:06:31;;;;;;;3.88;1.60;;;;;;;23.40;19.45;93176.06;2038467;70;20147;-80
2021/04/24 09:09:07;;;;;;;3.15;1.50;;;;;;;21.29;17.54;93165.13;2038259;70;20164;-83
2021/04/24 09:11:45;;;;;;;2.97;1.60;;;;;;;22.46;17.75;93174.69;2038519;70;20186;-81
2021/04/24 09:14:16;;;;;;;3.90;1.58;;;;;;;20.78;17.37;93160.06;2038455;70;20155;-84
2021/04/24 09:16:43;;;;;;;2.53;1.52;;;;;;;20.87;16.72;93143.88;2038553;70;20168;-83
2021/04/24 09:19:28;;;;;;;3.05;1.50;;;;;;;21.25;16.57;93144.97;2038408;70;20151;-83
2021/04/24 09:22:20;;;;;;;2.60;1.55;;;;;;;21.54;16.15;93140.06;2038421;70;20208;-79
2021/04/24 09:24:51;;;;;;;2.38;1.70;;;;;;;23.74;15.52;93145.16;2038327;70;20159;-83
2021/04/24 09:27:17;;;;;;;4.45;1.50;;;;;;;21.80;16.81;93134.28;2038440;70;20243;-82
2021/04/24 09:29:43;;;;;;;2.92;1.60;;;;;;;25.03;14.89;93130.00;2038461;70;20147;-83
2021/04/24 09:32:14;;;;;;;2.10;1.55;;;;;;;25.82;14.86;93136.75;2038430;70;20152;-81
2021/04/24 09:34:40;;;;;;;2.15;1.45;;;;;;;23.36;14.67;93124.25;2038399;70;20243;-81
2021/04/24 09:37:29;;;;;;;4.32;1.70;;;;;;;24.72;12.81;93128.81;2038339;70;20135;-82
2021/04/24 09:39:55;;;;;;;2.78;1.40;;;;;;;25.19;13.69;93115.81;2038271;70;20154;-79
2021/04/24 09:42:37;;;;;;;4.25;1.60;;;;;;;23.08;13.82;93105.03;2038383;70;20143;-80
2021/04/24 09:45:24;;;;;;;2.45;1.20;;;;;;;24.59;13.26;93104.88;2038381;70;20238;-82
2021/04/24 09:47:50;;;;;;;2.28;1.48;;;;;;;21.86;14.64;93096.47;2038366;70;20160;-79
2021/04/24 09:50:19;;;;;;;1.58;1.48;;;;;;;23.78;14.04;93102.13;2038269;70;20591;-82
2021/04/24 09:52:45;;;;;;;3.05;1.50;;;;;;;24.23;13.61;93093.50;2038352;70;20143;-79
2021/04/24 09:55:33;;;;;;;3.63;1.42;;;;;;;23.83;14.53;93092.16;2038410;70;20315;-80
2021/04/24 09:57:58;;;;;;;1.98;1.30;;;;;;;26.83;11.93;93090.00;2038334;70;20200;-78
2021/04/24 10:00:28;;;;;;;4.25;1.58;;;;;;;26.40;13.72;93088.97;2038411;70;20187;-78
2021/04/24 10:02:53;;;;;;;2.78;1.90;;;;;;;25.66;14.79;93084.66;2038230;70;20186;-78
2021/04/24 10:05:21;;;;;;;2.60;1.90;;;;;;;27.34;14.01;93081.63;2037718;70;20152;-78
2021/04/24 10:07:48;;;;;;;2.90;1.45;;;;;;;26.22;14.41;93071.50;2038040;70;20235;-77
2021/04/24 10:10:30;;;;;;;2.13;1.50;;;;;;;26.03;13.64;93064.88;2038254;70;20136;-78
2021/04/24 10:12:55;;;;;;;2.38;1.40;;;;;;;28.60;13.74;93066.66;2038311;70;20148;-77
2021/04/24 10:15:57;;;;;;;4.43;1.77;;;;;;;27.79;13.67;93055.03;2037649;70;20151;-77
2021/04/24 10:18:22;;;;;;;2.90;1.70;;;;;;;27.19;13.52;93057.00;2034142;70;20144;-77
2021/04/24 10:20:48;;;;;;;3.92;1.65;;;;;;;29.69;13.85;93057.66;2033676;70;20209;-78
2021/04/24 10:23:15;;;;;;;4.97;1.55;;;;;;;29.67;12.61;93046.09;2032942;70;20659;-79
2021/04/24 10:25:41;;;;;;;3.03;1.63;;;;;;;30.73;12.60;93048.97;2033374;70;20669;-77
2021/04/24 10:28:07;;;;;;;2.30;1.70;;;;;;;30.77;12.27;93048.19;2033589;70;20162;-77
2021/04/24 10:30:33;;;;;;;2.08;1.50;;;;;;;32.37;11.63;93047.69;2033546;70;20160;-77
2021/04/24 10:33:00;;;;;;;2.47;1.52;;;;;;;31.52;11.35;93037.94;2033846;70;20203;-77
2021/04/24 10:35:27;;;;;;;3.55;1.55;;;;;;;34.48;10.83;93039.19;2033543;70;20186;-77
2021/04/24 10:37:54;;;;;;;3.60;1.70;;;;;;;33.13;11.04;93033.28;2033598;70;20243;-77
2021/04/24 10:40:20;;;;;;;2.92;1.70;;;;;;;36.00;9.21;93036.59;2031073;70;20223;-77
2021/04/24 10:42:55;;;;;;;1.85;1.40;;;;;;;36.79;7.69;93027.50;2033708;70;20160;-78
2021/04/24 10:45:48;;;;;;;1.83;1.27;;;;;;;37.30;7.30;93028.72;2034081;70;20155;-78
2021/04/24 10:48:27;;;;;;;2.42;1.45;;;;;;;35.86;7.90;93023.06;2035044;70;20168;-78
2021/04/24 10:50:52;;;;;;;2.97;1.60;;;;;;;35.87;8.60;93014.97;2033518;70;20132;-76
2021/04/24 10:53:32;;;;;;;7.53;1.42;;;;;;;40.53;8.73;93022.00;2034496;70;20168;-76
2021/04/24 10:56:01;;;;;;;2.88;1.40;;;;;;;38.16;7.33;93016.75;2037552;70;20179;-77
2021/04/24 10:58:29;;;;;;;3.15;1.45;;;;;;;41.35;6.68;93012.78;2037992;70;20151;-75
2021/04/24 11:01:06;;;;;;;4.53;1.20;;;;;;;41.36;6.96;93013.47;2038314;70;20211;-77
2021/04/24 11:03:35;;;;;;;1.52;1.30;;;;;;;37.21;9.24;92991.66;2038782;70;20592;-76
2021/04/24 11:06:19;;;;;;;2.65;1.20;;;;;;;42.98;7.18;93006.16;2038576;70;20183;-76
2021/04/24 11:08:46;;;;;;;4.90;1.38;;;;;;;38.85;7.49;92996.34;2038342;70;20580;-76
2021/04/24 11:11:17;;;;;;;6.82;1.38;;;;;;;42.43;6.90;92993.75;2038590;70;20151;-76
2021/04/24 11:13:43;;;;;;;3.08;1.35;;;;;;;41.04;7.09;92987.03;2038541;70;20154;-77
2021/04/24 11:16:11;;;;;;;2.22;1.30;;;;;;;36.80;7.54;92987.16;2038659;70;20152;-78
2021/04/24 11:18:39;;;;;;;3.08;1.10;;;;;;;41.64;6.48;92991.31;2038570;70;20591;-76
2021/04/24 11:21:07;;;;;;;2.38;1.25;;;;;;;40.43;6.76;92975.28;2038447;70;20215;-79
2021/04/24 11:23:33;;;;;;;2.83;1.38;;;;;;;45.67;5.38;92987.72;2038472;70;20179;-78
2021/04/24 11:26:04;;;;;;;3.08;1.35;;;;;;;45.52;4.97;92988.00;2038475;70;20571;-78
2021/04/24 11:28:30;;;;;;;1.90;1.10;;;;;;;43.64;5.23;92980.00;2038531;70;20212;-78
2021/04/24 11:31:02;;;;;;;2.33;1.13;;;;;;;43.21;5.28;92972.25;2037979;70;20140;-78
2021/04/24 11:33:35;;;;;;;3.35;1.10;;;;;;;42.98;5.70;92970.63;2038454;70;20531;-77
2021/04/24 11:36:30;;;;;;;1.25;0.95;;;;;;;41.31;5.66;92956.88;2038581;70;20174;-77
2021/04/24 11:39:01;;;;;;;1.35;0.90;;;;;;;42.98;5.80;92963.97;2030704;70;20153;-79
2021/04/24 11:41:41;;;;;;;2.53;1.30;;;;;;;36.88;6.99;92946.53;2030827;70;20148;-78